createdAt,value
2022-12-26T00:01:00.378Z,87.00
2022-12-26T00:03:30.523Z,88.60
2022-12-26T00:06:00.035Z,89.50
2022-12-26T00:08:28.022Z,90.00
2022-12-26T00:10:56.035Z,89.80
2022-12-26T00:13:40.306Z,89.80
2022-12-26T00:16:10.379Z,90.30
2022-12-26T00:18:38.472Z,90.40
2022-12-26T00:21:08.761Z,90.40
2022-12-26T00:23:37.592Z,90.30
2022-12-26T00:26:07.077Z,90.00
2022-12-26T00:28:35.342Z,89.50
2022-12-26T00:31:05.690Z,88.60
2022-12-26T00:33:34.834Z,88.50
2022-12-26T00:36:04.501Z,88.70
2022-12-26T00:38:34.916Z,89.00
2022-12-26T00:41:03.132Z,89.60
2022-12-26T00:43:31.436Z,90.10
2022-12-26T00:45:59.436Z,89.00
2022-12-26T00:48:28.697Z,88.30
2022-12-26T00:50:57.203Z,89.00
2022-12-26T00:53:26.323Z,89.00
2022-12-26T00:55:56.149Z,88.60
2022-12-26T00:58:24.878Z,89.70
2022-12-26T01:00:53.504Z,89.10
2022-12-26T01:03:21.761Z,89.70
2022-12-26T01:05:51.456Z,89.50
2022-12-26T01:08:24.530Z,89.50
2022-12-26T01:10:54.806Z,89.50
2022-12-26T01:13:22.876Z,90.00
2022-12-26T01:15:51.845Z,90.20
2022-12-26T01:18:20.076Z,90.30
2022-12-26T01:20:48.787Z,90.30
2022-12-26T01:23:17.609Z,90.50
2022-12-26T01:26:15.071Z,91.10
2022-12-26T01:28:35.095Z,90.50
2022-12-26T01:31:04.388Z,89.90
2022-12-26T01:33:32.666Z,89.70
2022-12-26T01:36:00.762Z,89.80
2022-12-26T01:38:29.077Z,89.90
2022-12-26T01:41:10.960Z,89.80
2022-12-26T01:43:55.780Z,89.50
2022-12-26T01:46:28.472Z,90.20
2022-12-26T01:48:59.476Z,89.80
2022-12-26T01:51:30.623Z,88.80
2022-12-26T01:54:37.495Z,88.30
2022-12-26T01:56:49.382Z,87.90
2022-12-26T01:59:22.240Z,88.00
2022-12-26T02:01:53.813Z,88.70
2022-12-26T02:04:43.902Z,88.20
2022-12-26T02:07:12.120Z,88.30
2022-12-26T02:09:40.562Z,88.90
2022-12-26T02:12:35.622Z,89.00
2022-12-26T02:15:03.949Z,89.40
2022-12-26T02:17:32.099Z,90.40
2022-12-26T02:20:07.387Z,90.40
2022-12-26T02:23:06.762Z,90.40
2022-12-26T02:26:03.280Z,90.30
2022-12-26T02:28:53.590Z,90.30
2022-12-26T02:31:33.121Z,90.10
2022-12-26T02:34:11.824Z,90.30
2022-12-26T02:36:57.967Z,90.50
2022-12-26T02:39:46.686Z,90.50
2022-12-26T02:42:28.208Z,90.30
2022-12-26T02:45:14.113Z,90.90
2022-12-26T02:47:54.976Z,90.80
2022-12-26T02:50:46.800Z,90.80
2022-12-26T02:53:40.237Z,91.40
2022-12-26T02:56:29.514Z,92.30
2022-12-26T02:59:19.419Z,92.60
2022-12-26T03:02:33.989Z,92.80
2022-12-26T03:05:23.263Z,92.40
2022-12-26T03:08:09.601Z,92.40
2022-12-26T03:10:56.530Z,92.70
2022-12-26T03:13:29.789Z,93.10
2022-12-26T03:16:19.498Z,92.90
2022-12-26T03:18:58.831Z,93.90
2022-12-26T03:21:34.503Z,94.50
2022-12-26T03:24:02.465Z,93.60
2022-12-26T03:26:43.855Z,92.50
2022-12-26T03:29:31.782Z,91.10
2022-12-26T03:32:00.398Z,84.40
2022-12-26T03:34:28.807Z,80.40
2022-12-26T03:37:24.486Z,80.00
2022-12-26T03:40:54.447Z,78.00
2022-12-26T03:43:51.782Z,74.10
2022-12-26T03:46:51.664Z,73.00
2022-12-26T03:49:42.018Z,72.60
2022-12-26T03:52:35.536Z,71.30
2022-12-26T03:55:39.280Z,70.90
2022-12-26T03:58:28.908Z,71.00
2022-12-26T04:01:16.901Z,70.30
2022-12-26T04:04:05.013Z,70.90
2022-12-26T04:06:55.346Z,68.00
2022-12-26T04:09:48.776Z,68.90
2022-12-26T04:12:39.000Z,67.00
2022-12-26T04:15:35.158Z,67.10
2022-12-26T04:18:26.408Z,66.10
2022-12-26T04:21:30.865Z,64.90
2022-12-26T04:24:21.152Z,65.30
2022-12-26T04:27:12.764Z,65.20
2022-12-26T04:29:58.672Z,65.10
2022-12-26T04:32:52.830Z,63.90
2022-12-26T04:35:45.793Z,64.50
2022-12-26T04:38:38.354Z,64.10
2022-12-26T04:41:25.727Z,64.00
2022-12-26T04:44:04.709Z,64.20
2022-12-26T04:46:34.994Z,64.10
2022-12-26T04:49:24.444Z,64.10
2022-12-26T04:51:53.084Z,64.20
2022-12-26T04:54:21.085Z,63.90
2022-12-26T04:56:49.095Z,64.30
2022-12-26T04:59:19.433Z,62.80
2022-12-26T05:02:04.933Z,63.80
2022-12-26T05:04:50.860Z,66.90
2022-12-26T05:07:39.926Z,65.30
2022-12-26T05:10:12.509Z,68.70
2022-12-26T05:12:40.501Z,66.70
2022-12-26T05:15:11.391Z,65.90
2022-12-26T05:17:57.099Z,65.30
2022-12-26T05:20:42.778Z,65.30
2022-12-26T05:23:35.387Z,64.80
2022-12-26T05:26:21.491Z,64.70
2022-12-26T05:28:54.579Z,65.00
2022-12-26T05:31:24.118Z,63.70
2022-12-26T05:34:07.254Z,64.40
2022-12-26T05:36:40.151Z,64.20
2022-12-26T05:39:09.622Z,62.80
2022-12-26T05:41:38.292Z,61.30
2022-12-26T05:44:07.186Z,61.90
2022-12-26T05:46:37.074Z,62.30
2022-12-26T05:49:05.992Z,63.20
2022-12-26T05:51:33.968Z,64.00
2022-12-26T05:54:02.305Z,64.90
2022-12-26T05:56:30.708Z,65.80
2022-12-26T05:59:00.518Z,66.30
2022-12-26T06:01:30.157Z,64.90
2022-12-26T06:04:01.269Z,64.00
2022-12-26T06:06:29.859Z,64.10
2022-12-26T06:08:58.380Z,64.50
2022-12-26T06:11:27.123Z,66.10
2022-12-26T06:13:55.820Z,67.60
2022-12-26T06:16:24.211Z,68.40
2022-12-26T06:18:52.271Z,68.60
2022-12-26T06:21:21.993Z,69.10
2022-12-26T06:23:51.038Z,70.10
2022-12-26T06:26:19.416Z,70.20
2022-12-26T06:28:47.858Z,71.50
2022-12-26T06:31:22.143Z,72.50
2022-12-26T06:33:51.377Z,73.20
2022-12-26T06:36:22.373Z,74.10
2022-12-26T06:38:50.802Z,75.20
2022-12-26T06:41:20.469Z,75.50
2022-12-26T06:43:48.818Z,75.90
2022-12-26T06:46:19.082Z,75.70
2022-12-26T06:48:47.657Z,76.00
2022-12-26T06:51:17.060Z,76.10
2022-12-26T06:53:46.444Z,77.00
2022-12-26T06:56:16.282Z,76.00
2022-12-26T06:58:44.901Z,76.10
2022-12-26T07:01:15.185Z,75.90
2022-12-26T07:03:50.789Z,75.90
2022-12-26T07:06:24.022Z,76.70
2022-12-26T07:08:54.533Z,76.10
2022-12-26T07:11:25.598Z,76.20
2022-12-26T07:13:55.363Z,76.10
2022-12-26T07:16:24.255Z,75.30
2022-12-26T07:18:54.067Z,74.50
2022-12-26T07:21:22.902Z,74.30
2022-12-26T07:23:51.132Z,74.60
2022-12-26T07:26:20.508Z,74.20
2022-12-26T07:28:48.580Z,74.90
2022-12-26T07:31:18.489Z,74.20
2022-12-26T07:33:48.862Z,74.30
2022-12-26T07:36:17.377Z,74.20
2022-12-26T07:38:45.938Z,74.30
2022-12-26T07:41:31.825Z,74.70
2022-12-26T07:44:01.293Z,74.20
2022-12-26T07:46:29.369Z,74.30
2022-12-26T07:48:57.428Z,74.20
2022-12-26T07:51:25.679Z,73.60
2022-12-26T07:53:53.736Z,74.80
2022-12-26T07:56:21.657Z,74.40
2022-12-26T07:58:49.967Z,75.40
2022-12-26T08:01:19.881Z,74.20
2022-12-26T08:03:49.633Z,74.30
2022-12-26T08:06:18.318Z,74.50
2022-12-26T08:08:50.756Z,74.50
2022-12-26T08:11:21.510Z,75.30
2022-12-26T08:13:49.534Z,75.80
2022-12-26T08:16:19.264Z,77.00
2022-12-26T08:18:47.305Z,77.50
2022-12-26T08:21:15.334Z,78.20
2022-12-26T08:23:43.377Z,78.50
2022-12-26T08:26:16.311Z,79.40
2022-12-26T08:28:44.303Z,81.40
2022-12-26T08:31:14.677Z,82.80
2022-12-26T08:33:44.093Z,84.40
2022-12-26T08:36:13.876Z,86.10
2022-12-26T08:38:42.138Z,83.80
2022-12-26T08:41:10.457Z,83.70
2022-12-26T08:44:24.479Z,84.00
2022-12-26T08:46:26.804Z,82.50
2022-12-26T08:48:56.162Z,82.90
2022-12-26T08:51:25.879Z,81.20
2022-12-26T08:53:56.067Z,81.80
2022-12-26T08:56:25.997Z,81.90
2022-12-26T08:58:54.544Z,82.80
2022-12-26T09:01:24.376Z,83.50
2022-12-26T09:03:55.695Z,85.00
2022-12-26T09:06:24.492Z,84.70
2022-12-26T09:08:53.013Z,86.50
2022-12-26T09:11:23.734Z,85.70
2022-12-26T09:13:51.853Z,85.10
2022-12-26T09:16:21.910Z,84.90
2022-12-26T09:18:54.333Z,86.10
2022-12-26T09:21:23.870Z,87.60
2022-12-26T09:23:52.158Z,87.50
2022-12-26T09:26:21.039Z,87.30
2022-12-26T09:28:49.319Z,87.10
2022-12-26T09:31:19.760Z,87.10
2022-12-26T09:33:48.256Z,87.10
2022-12-26T09:36:17.879Z,86.20
2022-12-26T09:38:48.030Z,88.00
2022-12-26T09:41:47.605Z,88.10
2022-12-26T09:44:20.892Z,89.30
2022-12-26T09:47:01.108Z,90.20
2022-12-26T09:49:32.724Z,89.40
2022-12-26T09:52:03.069Z,90.10
2022-12-26T09:54:35.960Z,90.60
2022-12-26T09:57:14.603Z,90.60
2022-12-26T09:59:48.550Z,90.80
2022-12-26T10:02:20.493Z,90.60
2022-12-26T10:04:49.379Z,91.10
2022-12-26T10:07:26.698Z,91.50
2022-12-26T10:10:03.526Z,91.60
2022-12-26T10:12:44.107Z,91.90
2022-12-26T10:15:30.325Z,92.00
2022-12-26T10:18:09.006Z,92.40
2022-12-26T10:20:47.800Z,92.90
2022-12-26T10:23:31.172Z,93.60
2022-12-26T10:26:06.732Z,94.20
2022-12-26T10:28:40.241Z,94.30
2022-12-26T10:31:12.884Z,94.90
2022-12-26T10:33:46.622Z,95.10
2022-12-26T10:36:23.068Z,95.40
2022-12-26T10:38:53.869Z,95.00
2022-12-26T10:41:27.141Z,94.60
2022-12-26T10:43:55.879Z,94.60
2022-12-26T10:46:54.647Z,95.00
2022-12-26T10:49:25.414Z,95.30
2022-12-26T10:51:55.575Z,95.00
2022-12-26T10:54:23.784Z,95.40
2022-12-26T10:56:54.642Z,95.50
2022-12-26T10:59:24.417Z,94.90
2022-12-26T11:01:52.568Z,95.40
2022-12-26T11:05:10.356Z,94.50
2022-12-26T11:07:13.166Z,94.50
2022-12-26T11:09:43.995Z,94.10
2022-12-26T11:12:22.704Z,93.80
2022-12-26T11:14:51.640Z,93.00
2022-12-26T11:17:27.930Z,92.50
2022-12-26T11:20:20.108Z,92.20
2022-12-26T11:22:48.249Z,91.70
2022-12-26T11:25:22.724Z,91.50
2022-12-26T11:27:53.785Z,90.60
2022-12-26T11:30:28.686Z,88.90
2022-12-26T11:33:24.159Z,89.00
2022-12-26T11:35:56.154Z,89.50
2022-12-26T11:38:44.512Z,90.70
2022-12-26T11:41:39.580Z,91.30
2022-12-26T11:44:21.192Z,91.60
2022-12-26T11:46:53.804Z,92.10
2022-12-26T11:49:29.324Z,91.90
2022-12-26T11:52:00.039Z,91.80
2022-12-26T11:54:31.411Z,91.40
2022-12-26T11:57:19.329Z,91.60
2022-12-26T11:59:49.874Z,91.90
2022-12-26T12:02:27.688Z,91.60
2022-12-26T12:05:00.443Z,91.20
2022-12-26T12:08:13.580Z,90.90
2022-12-26T12:11:04.902Z,90.50
2022-12-26T12:13:58.743Z,89.90
2022-12-26T12:16:38.860Z,88.80
2022-12-26T12:19:21.939Z,87.50
2022-12-26T12:22:07.521Z,86.90
2022-12-26T12:24:47.720Z,88.40
2022-12-26T12:27:22.848Z,85.10
2022-12-26T12:30:11.875Z,86.70
2022-12-26T12:32:57.505Z,87.90
2022-12-26T12:35:42.066Z,87.50
2022-12-26T12:38:27.276Z,84.50
2022-12-26T12:41:07.714Z,85.80
2022-12-26T12:43:43.642Z,85.70
2022-12-26T12:46:22.034Z,83.10
2022-12-26T12:49:17.331Z,83.50
2022-12-26T12:51:52.635Z,82.90
2022-12-26T12:54:59.346Z,82.50
2022-12-26T12:57:34.493Z,84.60
2022-12-26T13:00:13.421Z,82.20
2022-12-26T13:02:46.826Z,83.10
2022-12-26T13:05:22.652Z,80.80
2022-12-26T13:07:54.854Z,82.30
2022-12-26T13:10:28.022Z,84.40
2022-12-26T13:12:57.028Z,85.40
2022-12-26T13:15:33.509Z,84.40
2022-12-26T13:18:05.141Z,83.30
2022-12-26T13:20:41.311Z,84.20
2022-12-26T13:23:34.987Z,84.50
2022-12-26T13:26:10.749Z,84.50
2022-12-26T13:28:49.610Z,84.20
2022-12-26T13:31:18.169Z,84.10
2022-12-26T13:33:46.422Z,83.30
2022-12-26T13:36:36.169Z,83.70
2022-12-26T13:39:33.457Z,81.10
2022-12-26T13:42:36.450Z,83.00
2022-12-26T13:45:48.612Z,80.20
2022-12-26T13:48:58.273Z,79.10
2022-12-26T13:52:14.799Z,80.30
2022-12-26T13:55:31.034Z,80.80
2022-12-26T13:58:35.554Z,83.70
2022-12-26T14:01:11.665Z,81.60
2022-12-26T14:03:53.596Z,82.50
2022-12-26T14:06:46.791Z,78.90
2022-12-26T14:09:32.800Z,78.80
2022-12-26T14:12:32.471Z,78.30
2022-12-26T14:15:21.710Z,78.50
2022-12-26T14:17:59.886Z,80.30
2022-12-26T14:20:40.105Z,82.50
2022-12-26T14:23:21.604Z,80.00
2022-12-26T14:25:57.891Z,81.70
2022-12-26T14:28:32.288Z,81.20
2022-12-26T14:31:13.043Z,80.30
2022-12-26T14:33:48.279Z,80.60
2022-12-26T14:36:26.154Z,78.70
2022-12-26T14:39:01.439Z,78.90
2022-12-26T14:41:47.246Z,78.20
2022-12-26T14:44:43.303Z,79.50
2022-12-26T14:47:11.646Z,77.90
2022-12-26T14:49:42.390Z,76.60
2022-12-26T14:52:41.268Z,76.60
2022-12-26T14:55:43.906Z,78.50
2022-12-26T14:58:40.002Z,73.80
2022-12-26T15:01:45.646Z,75.80
2022-12-26T15:04:49.047Z,76.60
2022-12-26T15:07:55.693Z,76.10
2022-12-26T15:10:54.809Z,76.20
2022-12-26T15:14:04.827Z,76.10
2022-12-26T15:16:58.145Z,74.70
2022-12-26T15:20:05.949Z,75.40
2022-12-26T15:23:12.800Z,74.00
2022-12-26T15:26:00.937Z,74.40
2022-12-26T15:29:01.262Z,75.80
2022-12-26T15:31:39.189Z,74.40
2022-12-26T15:34:29.448Z,75.80
2022-12-26T15:37:03.594Z,74.10
2022-12-26T15:39:40.592Z,73.60
2022-12-26T15:42:23.830Z,74.70
2022-12-26T15:45:05.716Z,74.70
2022-12-26T15:47:38.809Z,75.70
2022-12-26T15:50:23.145Z,75.70
2022-12-26T15:53:06.774Z,76.50
2022-12-26T15:55:47.142Z,75.00
2022-12-26T15:58:37.053Z,74.40
2022-12-26T16:01:05.881Z,74.30
2022-12-26T16:03:42.187Z,75.60
2022-12-26T16:06:27.871Z,74.10
2022-12-26T16:09:21.388Z,74.30
2022-12-26T16:11:54.735Z,74.30
2022-12-26T16:14:32.296Z,75.30
2022-12-26T16:17:23.432Z,73.90
2022-12-26T16:19:53.280Z,74.00
2022-12-26T16:22:43.601Z,76.20
2022-12-26T16:25:15.345Z,76.20
2022-12-26T16:27:43.869Z,76.70
2022-12-26T16:30:17.371Z,77.30
2022-12-26T16:32:46.021Z,76.10
2022-12-26T16:35:20.861Z,75.90
2022-12-26T16:37:49.807Z,75.90
2022-12-26T16:40:25.613Z,75.10
2022-12-26T16:43:02.553Z,73.90
2022-12-26T16:45:33.969Z,74.80
2022-12-26T16:48:02.533Z,75.10
2022-12-26T16:50:32.895Z,76.60
2022-12-26T16:53:12.870Z,76.80
2022-12-26T16:55:45.429Z,76.70
2022-12-26T16:58:26.424Z,75.20
2022-12-26T17:01:08.532Z,74.20
2022-12-26T17:03:42.128Z,74.10
2022-12-26T17:06:15.115Z,75.70
2022-12-26T17:08:46.038Z,74.60
2022-12-26T17:11:15.814Z,75.20
2022-12-26T17:13:56.081Z,76.20
2022-12-26T17:16:25.740Z,76.00
2022-12-26T17:18:54.749Z,73.80
2022-12-26T17:21:25.613Z,74.20
2022-12-26T17:24:16.123Z,74.50
2022-12-26T17:26:50.723Z,74.90
2022-12-26T17:29:51.826Z,74.20
2022-12-26T17:32:36.919Z,76.20
2022-12-26T17:35:08.872Z,75.10
2022-12-26T17:37:37.491Z,76.40
2022-12-26T17:40:19.584Z,76.80
2022-12-26T17:42:50.796Z,76.10
2022-12-26T17:45:20.707Z,74.30
2022-12-26T17:47:48.868Z,76.10
2022-12-26T17:50:16.860Z,74.80
2022-12-26T17:52:45.054Z,74.30
2022-12-26T17:55:19.828Z,73.80
2022-12-26T17:57:49.161Z,73.10
2022-12-26T18:00:19.279Z,73.30
2022-12-26T18:02:47.517Z,72.40
2022-12-26T18:05:16.226Z,74.10
2022-12-26T18:07:45.562Z,75.10
2022-12-26T18:10:18.989Z,74.70
2022-12-26T18:12:47.025Z,74.50
2022-12-26T18:15:16.486Z,74.20
2022-12-26T18:17:45.272Z,77.30
2022-12-26T18:20:17.591Z,82.50
2022-12-26T18:22:47.548Z,84.10
2022-12-26T18:25:16.642Z,85.50
2022-12-26T18:27:45.036Z,86.60
2022-12-26T18:30:18.394Z,82.30
2022-12-26T18:32:47.772Z,83.60
2022-12-26T18:35:16.744Z,85.90
2022-12-26T18:37:48.467Z,86.20
2022-12-26T18:40:28.857Z,88.30
2022-12-26T18:42:57.046Z,90.10
2022-12-26T18:45:26.850Z,88.80
2022-12-26T18:47:54.947Z,90.60
2022-12-26T18:50:23.346Z,90.90
2022-12-26T18:52:53.740Z,91.10
2022-12-26T18:55:22.791Z,91.40
2022-12-26T18:57:51.213Z,92.20
2022-12-26T19:00:21.043Z,92.70
2022-12-26T19:02:51.841Z,92.00
2022-12-26T19:05:21.448Z,91.60
2022-12-26T19:07:50.429Z,92.00
2022-12-26T19:10:20.048Z,92.80
2022-12-26T19:12:48.707Z,91.60
2022-12-26T19:15:18.563Z,91.50
2022-12-26T19:17:46.547Z,90.80
2022-12-26T19:20:21.456Z,90.70
2022-12-26T19:22:50.343Z,90.10
2022-12-26T19:25:20.421Z,90.10
2022-12-26T19:27:49.739Z,90.10
2022-12-26T19:30:18.922Z,90.90
2022-12-26T19:32:46.973Z,90.10
2022-12-26T19:35:16.146Z,90.10
2022-12-26T19:37:45.661Z,87.40
2022-12-26T19:40:18.440Z,88.50
2022-12-26T19:42:49.725Z,87.90
2022-12-26T19:45:17.954Z,89.30
2022-12-26T19:47:45.991Z,90.60
2022-12-26T19:50:15.565Z,90.60
2022-12-26T19:52:44.907Z,90.60
2022-12-26T19:55:13.376Z,90.90
2022-12-26T19:57:41.409Z,91.60
2022-12-26T20:00:11.325Z,90.90
2022-12-26T20:02:39.416Z,91.20
2022-12-26T20:05:08.404Z,91.00
2022-12-26T20:07:36.572Z,91.00
2022-12-26T20:10:06.767Z,91.00
2022-12-26T20:12:34.787Z,91.00
2022-12-26T20:15:02.811Z,91.00
2022-12-26T20:17:30.834Z,89.30
2022-12-26T20:19:58.882Z,86.60
2022-12-26T20:22:27.679Z,88.70
2022-12-26T20:24:55.697Z,90.00
2022-12-26T20:27:25.280Z,90.80
2022-12-26T20:29:53.323Z,91.70
2022-12-26T20:32:21.362Z,91.30
2022-12-26T20:34:49.323Z,91.80
2022-12-26T20:37:18.096Z,91.50
2022-12-26T20:39:46.155Z,91.10
2022-12-26T20:42:16.314Z,91.10
2022-12-26T20:44:45.650Z,89.00
2022-12-26T20:47:13.675Z,87.90
2022-12-26T20:49:41.670Z,86.70
2022-12-26T20:52:09.676Z,81.90
2022-12-26T20:54:37.733Z,81.90
2022-12-26T20:57:05.710Z,79.70
2022-12-26T20:59:33.715Z,81.90
2022-12-26T21:02:03.400Z,80.90
2022-12-26T21:04:33.172Z,81.80
2022-12-26T21:07:01.169Z,81.60
2022-12-26T21:09:29.134Z,82.60
2022-12-26T21:11:57.123Z,82.40
2022-12-26T21:14:25.465Z,83.70
2022-12-26T21:16:55.660Z,82.10
2022-12-26T21:19:26.644Z,81.70
2022-12-26T21:21:56.523Z,81.20
2022-12-26T21:24:27.052Z,82.10
2022-12-26T21:26:55.623Z,81.70
2022-12-26T21:29:26.183Z,79.20
2022-12-26T21:31:54.743Z,81.70
2022-12-26T21:34:27.209Z,82.30
2022-12-26T21:37:14.048Z,83.40
2022-12-26T21:39:42.718Z,81.40
2022-12-26T21:42:11.235Z,82.50
2022-12-26T21:44:39.332Z,80.30
2022-12-26T21:47:08.421Z,79.50
2022-12-26T21:49:38.174Z,80.70
2022-12-26T21:52:07.534Z,81.80
2022-12-26T21:54:53.149Z,81.90
2022-12-26T21:57:21.422Z,83.10
2022-12-26T21:59:59.174Z,82.20
2022-12-26T22:02:47.724Z,85.20
2022-12-26T22:05:18.124Z,84.70
2022-12-26T22:07:46.425Z,84.80
2022-12-26T22:10:35.440Z,86.30
2022-12-26T22:13:04.090Z,86.40
2022-12-26T22:15:49.721Z,88.00
2022-12-26T22:18:18.115Z,86.60
2022-12-26T22:20:47.597Z,88.80
2022-12-26T22:23:15.916Z,86.20
2022-12-26T22:25:43.905Z,85.70
2022-12-26T22:28:11.946Z,86.20
2022-12-26T22:30:39.935Z,82.70
2022-12-26T22:33:07.907Z,82.30
2022-12-26T22:35:35.887Z,85.60
2022-12-26T22:38:05.243Z,89.50
2022-12-26T22:40:33.303Z,92.20
2022-12-26T22:43:01.353Z,93.40
2022-12-26T22:45:29.365Z,94.20
2022-12-26T22:47:57.455Z,94.00
2022-12-26T22:50:25.467Z,94.50
2022-12-26T22:52:53.442Z,94.80
2022-12-26T22:55:22.776Z,94.20
2022-12-26T22:57:52.745Z,93.80
2022-12-26T23:00:21.470Z,93.30
2022-12-26T23:02:49.883Z,92.40
2022-12-26T23:05:18.556Z,92.00
2022-12-26T23:07:47.150Z,92.50
2022-12-26T23:10:21.083Z,91.70
2022-12-26T23:12:51.192Z,91.20
2022-12-26T23:15:21.171Z,90.30
2022-12-26T23:18:13.212Z,90.60
2022-12-26T23:20:59.169Z,90.40
2022-12-26T23:23:27.795Z,89.90
2022-12-26T23:25:55.824Z,89.70
2022-12-26T23:28:42.827Z,89.30
2022-12-26T23:31:10.881Z,88.60
2022-12-26T23:33:38.956Z,89.20
2022-12-26T23:36:08.423Z,88.90
2022-12-26T23:38:36.456Z,88.50
2022-12-26T23:41:04.444Z,87.80
2022-12-26T23:43:34.505Z,84.00
2022-12-26T23:46:02.501Z,85.40
2022-12-26T23:48:30.495Z,85.70
2022-12-26T23:51:06.285Z,83.70
2022-12-26T23:53:34.539Z,79.60
2022-12-26T23:56:02.553Z,78.30
2022-12-26T23:58:30.566Z,80.30
